sensor_id;sensor_type;location;lat;lon;timestamp;pressure;altitude;pressure_sealevel;temperature;humidity
24962;BME280;12992;50.884;13.668;2022-12-07T00:01:24;97150.22;;;1.42;100.00
24962;BME280;12992;50.884;13.668;2022-12-07T00:03:52;97147.28;;;1.37;100.00
24962;BME280;12992;50.884;13.668;2022-12-07T00:06:19;97138.84;;;1.33;100.00
24962;BME280;12992;50.884;13.668;2022-12-07T00:08:45;97141.09;;;1.36;100.00
24962;BME280;12992;50.884;13.668;2022-12-07T00:11:13;97154.13;;;1.46;100.00
24962;BME280;12992;50.884;13.668;2022-12-07T00:13:40;97154.53;;;1.50;100.00
24962;BME280;12992;50.884;13.668;2022-12-07T00:16:11;97143.81;;;1.50;100.00
24962;BME280;12992;50.884;13.668;2022-12-07T00:18:37;97145.88;;;1.48;100.00
24962;BME280;12992;50.884;13.668;2022-12-07T00:21:09;97129.75;;;1.48;100.00
24962;BME280;12992;50.884;13.668;2022-12-07T00:23:35;97127.91;;;1.41;100.00
24962;BME280;12992;50.884;13.668;2022-12-07T00:26:05;97128.09;;;1.40;100.00
24962;BME280;12992;50.884;13.668;2022-12-07T00:28:31;97122.72;;;1.40;100.00
24962;BME280;12992;50.884;13.668;2022-12-07T00:31:03;97113.22;;;1.37;100.00
24962;BME280;12992;50.884;13.668;2022-12-07T00:33:29;97125.84;;;1.44;100.00
24962;BME280;12992;50.884;13.668;2022-12-07T00:35:58;97111.81;;;1.41;100.00
24962;BME280;12992;50.884;13.668;2022-12-07T00:38:26;97110.13;;;1.40;100.00
24962;BME280;12992;50.884;13.668;2022-12-07T00:40:56;97102.72;;;1.42;100.00
24962;BME280;12992;50.884;13.668;2022-12-07T00:43:22;97112.00;;;1.47;100.00
24962;BME280;12992;50.884;13.668;2022-12-07T00:45:47;97115.09;;;1.50;100.00
24962;BME280;12992;50.884;13.668;2022-12-07T00:48:13;97109.13;;;1.48;100.00
24962;BME280;12992;50.884;13.668;2022-12-07T00:50:38;97105.81;;;1.46;100.00
24962;BME280;12992;50.884;13.668;2022-12-07T00:53:03;97101.28;;;1.47;100.00
24962;BME280;12992;50.884;13.668;2022-12-07T00:55:33;97100.88;;;1.43;100.00
24962;BME280;12992;50.884;13.668;2022-12-07T00:57:58;97099.00;;;1.50;100.00
24962;BME280;12992;50.884;13.668;2022-12-07T01:00:23;97106.44;;;1.48;100.00
24962;BME280;12992;50.884;13.668;2022-12-07T01:02:49;97097.53;;;1.41;100.00
24962;BME280;12992;50.884;13.668;2022-12-07T01:05:14;97108.09;;;1.49;100.00
24962;BME280;12992;50.884;13.668;2022-12-07T01:07:39;97098.19;;;1.50;100.00
24962;BME280;12992;50.884;13.668;2022-12-07T01:10:05;97089.72;;;1.46;100.00
24962;BME280;12992;50.884;13.668;2022-12-07T01:12:31;97103.56;;;1.50;100.00
24962;BME280;12992;50.884;13.668;2022-12-07T01:14:56;97091.16;;;1.49;100.00
24962;BME280;12992;50.884;13.668;2022-12-07T01:17:21;97092.63;;;1.45;100.00
24962;BME280;12992;50.884;13.668;2022-12-07T01:19:47;97088.91;;;1.46;100.00
24962;BME280;12992;50.884;13.668;2022-12-07T01:22:12;97087.66;;;1.41;100.00
24962;BME280;12992;50.884;13.668;2022-12-07T01:24:37;97096.34;;;1.44;100.00
24962;BME280;12992;50.884;13.668;2022-12-07T01:27:03;97086.00;;;1.40;100.00
24962;BME280;12992;50.884;13.668;2022-12-07T01:29:28;97083.94;;;1.42;100.00
24962;BME280;12992;50.884;13.668;2022-12-07T01:31:53;97077.75;;;1.35;100.00
24962;BME280;12992;50.884;13.668;2022-12-07T01:34:19;97069.47;;;1.30;100.00
24962;BME280;12992;50.884;13.668;2022-12-07T01:36:44;97073.59;;;1.26;100.00
24962;BME280;12992;50.884;13.668;2022-12-07T01:39:10;97077.72;;;1.29;100.00
24962;BME280;12992;50.884;13.668;2022-12-07T01:41:38;97079.16;;;1.31;100.00
24962;BME280;12992;50.884;13.668;2022-12-07T01:44:18;97078.97;;;1.33;100.00
24962;BME280;12992;50.884;13.668;2022-12-07T01:46:55;97081.84;;;1.31;100.00
24962;BME280;12992;50.884;13.668;2022-12-07T01:49:42;97078.13;;;1.32;100.00
24962;BME280;12992;50.884;13.668;2022-12-07T01:52:28;97076.28;;;1.26;100.00
24962;BME280;12992;50.884;13.668;2022-12-07T01:55:04;97073.97;;;1.23;100.00
24962;BME280;12992;50.884;13.668;2022-12-07T01:57:33;97072.34;;;1.22;100.00
24962;BME280;12992;50.884;13.668;2022-12-07T02:00:00;97072.97;;;1.24;100.00
24962;BME280;12992;50.884;13.668;2022-12-07T02:02:43;97089.50;;;1.34;100.00
24962;BME280;12992;50.884;13.668;2022-12-07T02:05:09;97084.13;;;1.41;100.00
24962;BME280;12992;50.884;13.668;2022-12-07T02:07:36;97075.84;;;1.29;100.00
24962;BME280;12992;50.884;13.668;2022-12-07T02:10:16;97071.13;;;1.31;100.00
24962;BME280;12992;50.884;13.668;2022-12-07T02:12:44;97067.00;;;1.35;100.00
24962;BME280;12992;50.884;13.668;2022-12-07T02:15:12;97071.97;;;1.38;100.00
24962;BME280;12992;50.884;13.668;2022-12-07T02:17:48;97064.31;;;1.35;100.00
24962;BME280;12992;50.884;13.668;2022-12-07T02:20:30;97067.22;;;1.40;100.00
24962;BME280;12992;50.884;13.668;2022-12-07T02:28:26;97061.66;;;1.35;100.00
24962;BME280;12992;50.884;13.668;2022-12-07T02:30:56;97063.69;;;1.40;100.00
24962;BME280;12992;50.884;13.668;2022-12-07T02:33:28;97061.84;;;1.40;100.00
24962;BME280;12992;50.884;13.668;2022-12-07T02:36:05;97061.22;;;1.38;100.00
24962;BME280;12992;50.884;13.668;2022-12-07T02:38:48;97065.97;;;1.36;100.00
24962;BME280;12992;50.884;13.668;2022-12-07T02:41:29;97067.22;;;1.40;100.00
24962;BME280;12992;50.884;13.668;2022-12-07T02:43:57;97063.69;;;1.40;100.00
24962;BME280;12992;50.884;13.668;2022-12-07T02:46:29;97056.91;;;1.37;100.00
24962;BME280;12992;50.884;13.668;2022-12-07T02:48:55;97061.44;;;1.37;100.00
24962;BME280;12992;50.884;13.668;2022-12-07T02:51:21;97055.47;;;1.41;100.00
24962;BME280;12992;50.884;13.668;2022-12-07T02:53:47;97049.66;;;1.38;100.00
24962;BME280;12992;50.884;13.668;2022-12-07T03:08:04;97031.09;;;1.36;100.00
24962;BME280;12992;50.884;13.668;2022-12-07T03:13:05;97027.16;;;1.32;100.00
24962;BME280;12992;50.884;13.668;2022-12-07T03:16:09;97021.41;;;1.35;100.00
24962;BME280;12992;50.884;13.668;2022-12-07T03:18:45;97008.59;;;1.24;100.00
24962;BME280;12992;50.884;13.668;2022-12-07T03:21:16;97017.47;;;1.31;100.00
24962;BME280;12992;50.884;13.668;2022-12-07T03:23:46;97019.34;;;1.37;100.00
24962;BME280;12992;50.884;13.668;2022-12-07T03:26:14;97018.50;;;1.37;100.00
24962;BME280;12992;50.884;13.668;2022-12-07T03:28:46;96998.69;;;1.31;100.00
24962;BME280;12992;50.884;13.668;2022-12-07T03:31:19;96993.31;;;1.31;100.00
24962;BME280;12992;50.884;13.668;2022-12-07T03:33:56;96981.56;;;1.26;100.00
24962;BME280;12992;50.884;13.668;2022-12-07T03:36:51;96974.34;;;1.20;100.00
24962;BME280;12992;50.884;13.668;2022-12-07T03:41:47;96958.03;;;1.01;100.00
24962;BME280;12992;50.884;13.668;2022-12-07T03:44:14;96959.25;;;0.99;100.00
24962;BME280;12992;50.884;13.668;2022-12-07T03:52:16;96955.94;;;0.83;100.00
24962;BME280;12992;50.884;13.668;2022-12-07T03:54:59;96961.91;;;0.85;100.00
24962;BME280;12992;50.884;13.668;2022-12-07T03:57:26;96961.91;;;0.85;100.00
24962;BME280;12992;50.884;13.668;2022-12-07T03:59:54;96966.06;;;0.95;100.00
24962;BME280;12992;50.884;13.668;2022-12-07T04:02:21;96972.47;;;1.00;100.00
24962;BME280;12992;50.884;13.668;2022-12-07T04:04:47;96951.41;;;0.91;100.00
24962;BME280;12992;50.884;13.668;2022-12-07T04:07:12;96949.13;;;0.88;100.00
24962;BME280;12992;50.884;13.668;2022-12-07T04:09:38;96952.25;;;0.91;100.00
24962;BME280;12992;50.884;13.668;2022-12-07T04:12:03;96954.31;;;0.89;100.00
24962;BME280;12992;50.884;13.668;2022-12-07T04:14:29;96952.03;;;0.93;100.00
24962;BME280;12992;50.884;13.668;2022-12-07T04:16:56;96949.75;;;0.96;100.00
24962;BME280;12992;50.884;13.668;2022-12-07T04:19:24;96946.91;;;0.98;100.00
24962;BME280;12992;50.884;13.668;2022-12-07T04:21:50;96945.66;;;1.00;100.00
24962;BME280;12992;50.884;13.668;2022-12-07T04:24:16;96940.06;;;0.95;100.00
24962;BME280;12992;50.884;13.668;2022-12-07T04:26:41;96939.47;;;1.00;100.00
24962;BME280;12992;50.884;13.668;2022-12-07T04:29:08;96937.16;;;0.97;100.00
24962;BME280;12992;50.884;13.668;2022-12-07T04:31:34;96935.34;;;0.97;100.00
24962;BME280;12992;50.884;13.668;2022-12-07T04:33:59;96920.06;;;0.84;100.00
24962;BME280;12992;50.884;13.668;2022-12-07T04:36:25;96909.94;;;0.73;100.00
24962;BME280;12992;50.884;13.668;2022-12-07T04:38:53;96907.03;;;0.68;100.00
24962;BME280;12992;50.884;13.668;2022-12-07T04:41:18;96904.34;;;0.68;100.00
24962;BME280;12992;50.884;13.668;2022-12-07T04:43:43;96910.16;;;0.72;100.00
24962;BME280;12992;50.884;13.668;2022-12-07T04:46:09;96909.09;;;0.66;100.00
24962;BME280;12992;50.884;13.668;2022-12-07T04:48:34;96896.28;;;0.62;100.00
24962;BME280;12992;50.884;13.668;2022-12-07T04:50:59;96882.25;;;0.53;100.00
24962;BME280;12992;50.884;13.668;2022-12-07T04:53:25;96887.00;;;0.51;100.00
24962;BME280;12992;50.884;13.668;2022-12-07T04:55:50;96881.25;;;0.54;100.00
24962;BME280;12992;50.884;13.668;2022-12-07T04:58:15;96864.97;;;0.49;100.00
24962;BME280;12992;50.884;13.668;2022-12-07T05:00:41;96867.44;;;0.50;100.00
24962;BME280;12992;50.884;13.668;2022-12-07T05:03:07;96867.63;;;0.49;100.00
24962;BME280;12992;50.884;13.668;2022-12-07T05:05:32;96872.59;;;0.45;100.00
24962;BME280;12992;50.884;13.668;2022-12-07T05:07:58;96856.50;;;0.39;100.00
24962;BME280;12992;50.884;13.668;2022-12-07T05:10:23;96866.78;;;0.42;100.00
24962;BME280;12992;50.884;13.668;2022-12-07T05:12:49;96855.66;;;0.32;100.00
24962;BME280;12992;50.884;13.668;2022-12-07T05:15:15;96866.38;;;0.38;100.00
24962;BME280;12992;50.884;13.668;2022-12-07T05:17:41;96856.91;;;0.36;100.00
24962;BME280;12992;50.884;13.668;2022-12-07T05:20:07;96859.78;;;0.41;100.00
24962;BME280;12992;50.884;13.668;2022-12-07T05:22:33;96855.66;;;0.32;100.00
24962;BME280;12992;50.884;13.668;2022-12-07T05:24:58;96874.22;;;0.40;100.00
24962;BME280;12992;50.884;13.668;2022-12-07T05:27:23;96872.38;;;0.47;100.00
24962;BME280;12992;50.884;13.668;2022-12-07T05:29:50;96871.56;;;0.53;100.00
24962;BME280;12992;50.884;13.668;2022-12-07T05:32:15;96867.66;;;0.55;100.00
24962;BME280;12992;50.884;13.668;2022-12-07T05:34:41;96862.09;;;0.57;100.00
24962;BME280;12992;50.884;13.668;2022-12-07T05:37:06;96863.13;;;0.56;100.00
24962;BME280;12992;50.884;13.668;2022-12-07T05:39:31;96861.88;;;0.52;100.00
24962;BME280;12992;50.884;13.668;2022-12-07T05:41:57;96863.72;;;0.51;100.00
24962;BME280;12992;50.884;13.668;2022-12-07T05:44:45;96855.28;;;0.54;100.00
24962;BME280;12992;50.884;13.668;2022-12-07T05:47:12;96859.81;;;0.61;100.00
24962;BME280;12992;50.884;13.668;2022-12-07T05:49:38;96860.25;;;0.64;100.00
24962;BME280;12992;50.884;13.668;2022-12-07T05:52:04;96858.59;;;0.70;100.00
24962;BME280;12992;50.884;13.668;2022-12-07T05:54:29;96844.56;;;0.68;100.00
24962;BME280;12992;50.884;13.668;2022-12-07T05:56:55;96845.00;;;0.71;100.00
24962;BME280;12992;50.884;13.668;2022-12-07T05:59:21;96845.41;;;0.75;100.00
24962;BME280;12992;50.884;13.668;2022-12-07T06:01:59;96845.19;;;0.76;100.00
24962;BME280;12992;50.884;13.668;2022-12-07T06:04:27;96843.34;;;0.77;100.00
24962;BME280;12992;50.884;13.668;2022-12-07T06:06:53;96853.66;;;0.87;100.00
24962;BME280;12992;50.884;13.668;2022-12-07T06:09:20;96855.31;;;0.94;100.00
24962;BME280;12992;50.884;13.668;2022-12-07T06:11:45;96852.84;;;0.99;100.00
24962;BME280;12992;50.884;13.668;2022-12-07T06:14:30;96854.28;;;1.02;100.00
24962;BME280;12992;50.884;13.668;2022-12-07T06:16:55;96845.41;;;1.08;100.00
24962;BME280;12992;50.884;13.668;2022-12-07T06:19:20;96854.06;;;1.10;100.00
24962;BME280;12992;50.884;13.668;2022-12-07T06:21:46;96858.63;;;1.16;100.00
24962;BME280;12992;50.884;13.668;2022-12-07T06:24:12;96857.16;;;1.20;100.00
24962;BME280;12992;50.884;13.668;2022-12-07T06:26:39;96853.84;;;1.25;100.00
24962;BME280;12992;50.884;13.668;2022-12-07T06:29:04;96838.16;;;1.22;100.00
24962;BME280;12992;50.884;13.668;2022-12-07T06:31:30;96853.44;;;1.21;100.00
24962;BME280;12992;50.884;13.668;2022-12-07T06:34:05;96836.94;;;1.18;100.00
24962;BME280;12992;50.884;13.668;2022-12-07T06:36:31;96847.47;;;1.19;100.00
24962;BME280;12992;50.884;13.668;2022-12-07T06:38:57;96847.03;;;1.22;100.00
24962;BME280;12992;50.884;13.668;2022-12-07T06:41:22;96847.88;;;1.16;100.00
24962;BME280;12992;50.884;13.668;2022-12-07T06:43:48;96860.25;;;1.17;100.00
24962;BME280;12992;50.884;13.668;2022-12-07T06:46:14;96848.94;;;1.15;100.00
24962;BME280;12992;50.884;13.668;2022-12-07T06:48:41;96857.38;;;1.12;100.00
24962;BME280;12992;50.884;13.668;2022-12-07T06:51:06;96848.69;;;1.03;100.00
24962;BME280;12992;50.884;13.668;2022-12-07T06:53:32;96858.81;;;1.08;100.00
24962;BME280;12992;50.884;13.668;2022-12-07T06:55:57;96867.28;;;1.11;100.00
24962;BME280;12992;50.884;13.668;2022-12-07T06:58:23;96861.72;;;1.06;100.00
24962;BME280;12992;50.884;13.668;2022-12-07T07:00:48;96880.47;;;1.13;100.00
24962;BME280;12992;50.884;13.668;2022-12-07T07:03:15;96871.19;;;1.09;100.00
24962;BME280;12992;50.884;13.668;2022-12-07T07:05:41;96876.78;;;1.07;100.00
24962;BME280;12992;50.884;13.668;2022-12-07T07:08:07;96881.31;;;1.07;100.00
24962;BME280;12992;50.884;13.668;2022-12-07T07:10:32;96889.53;;;1.12;100.00
24962;BME280;12992;50.884;13.668;2022-12-07T07:12:58;96901.09;;;1.19;100.00
24962;BME280;12992;50.884;13.668;2022-12-07T07:15:23;96889.97;;;1.16;100.00
24962;BME280;12992;50.884;13.668;2022-12-07T07:17:49;96907.06;;;1.21;100.00
24962;BME280;12992;50.884;13.668;2022-12-07T07:20:14;96913.06;;;1.23;100.00
24962;BME280;12992;50.884;13.668;2022-12-07T07:22:40;96905.44;;;1.20;100.00
24962;BME280;12992;50.884;13.668;2022-12-07T07:25:05;96907.28;;;1.20;100.00
24962;BME280;12992;50.884;13.668;2022-12-07T07:27:31;96907.06;;;1.14;100.00
24962;BME280;12992;50.884;13.668;2022-12-07T07:29:56;96904.59;;;1.13;100.00
24962;BME280;12992;50.884;13.668;2022-12-07T07:32:21;96920.69;;;1.13;100.00
24962;BME280;12992;50.884;13.668;2022-12-07T07:34:47;96922.16;;;1.16;100.00
24962;BME280;12992;50.884;13.668;2022-12-07T07:37:13;96925.25;;;1.19;100.00
24962;BME280;12992;50.884;13.668;2022-12-07T07:39:38;96931.41;;;1.13;100.00
24962;BME280;12992;50.884;13.668;2022-12-07T07:42:04;96929.56;;;1.13;100.00
24962;BME280;12992;50.884;13.668;2022-12-07T07:44:31;96930.19;;;1.16;100.00
24962;BME280;12992;50.884;13.668;2022-12-07T07:46:57;96939.06;;;1.16;100.00
24962;BME280;12992;50.884;13.668;2022-12-07T07:49:22;96940.28;;;1.20;100.00
24962;BME280;12992;50.884;13.668;2022-12-07T07:51:47;96941.72;;;1.23;100.00
24962;BME280;12992;50.884;13.668;2022-12-07T07:54:13;96941.94;;;1.28;100.00
24962;BME280;12992;50.884;13.668;2022-12-07T07:56:38;96953.91;;;1.32;100.00
24962;BME280;12992;50.884;13.668;2022-12-07T07:59:03;96954.72;;;1.32;100.00
24962;BME280;12992;50.884;13.668;2022-12-07T08:01:29;96951.03;;;1.33;100.00
24962;BME280;12992;50.884;13.668;2022-12-07T08:03:54;96951.44;;;1.37;100.00
24962;BME280;12992;50.884;13.668;2022-12-07T08:06:20;96961.75;;;1.40;100.00
24962;BME280;12992;50.884;13.668;2022-12-07T08:08:45;96962.19;;;1.44;100.00
24962;BME280;12992;50.884;13.668;2022-12-07T08:11:10;96967.94;;;1.47;100.00
24962;BME280;12992;50.884;13.668;2022-12-07T08:13:36;96971.66;;;1.53;100.00
24962;BME280;12992;50.884;13.668;2022-12-07T08:16:07;96975.78;;;1.55;100.00
24962;BME280;12992;50.884;13.668;2022-12-07T08:18:39;96973.31;;;1.54;100.00
24962;BME280;12992;50.884;13.668;2022-12-07T08:21:06;96982.41;;;1.53;100.00
24962;BME280;12992;50.884;13.668;2022-12-07T08:23:33;96979.91;;;1.58;100.00
24962;BME280;12992;50.884;13.668;2022-12-07T08:26:07;96991.28;;;1.60;100.00
24962;BME280;12992;50.884;13.668;2022-12-07T08:28:33;96989.22;;;1.62;100.00
24962;BME280;12992;50.884;13.668;2022-12-07T08:31:00;96978.47;;;1.62;100.00
24962;BME280;12992;50.884;13.668;2022-12-07T08:33:26;96987.34;;;1.69;100.00
24962;BME280;12992;50.884;13.668;2022-12-07T08:35:51;96983.41;;;1.72;100.00
24962;BME280;12992;50.884;13.668;2022-12-07T08:38:16;96986.94;;;1.72;100.00
24962;BME280;12992;50.884;13.668;2022-12-07T08:40:42;96990.84;;;1.76;100.00
24962;BME280;12992;50.884;13.668;2022-12-07T08:43:07;96990.63;;;1.84;100.00
24962;BME280;12992;50.884;13.668;2022-12-07T08:45:32;96984.84;;;1.87;100.00
24962;BME280;12992;50.884;13.668;2022-12-07T08:48:09;96982.16;;;1.87;100.00
24962;BME280;12992;50.884;13.668;2022-12-07T08:50:36;96982.78;;;1.89;100.00
24962;BME280;12992;50.884;13.668;2022-12-07T08:53:02;96985.47;;;1.96;100.00
24962;BME280;12992;50.884;13.668;2022-12-07T08:55:29;96985.84;;;1.93;100.00
24962;BME280;12992;50.884;13.668;2022-12-07T08:57:57;96983.59;;;1.96;100.00
24962;BME280;12992;50.884;13.668;2022-12-07T09:00:23;96988.09;;;2.03;100.00
24962;BME280;12992;50.884;13.668;2022-12-07T09:02:48;96990.78;;;2.16;100.00
24962;BME280;12992;50.884;13.668;2022-12-07T09:05:14;96994.66;;;2.26;100.00
24962;BME280;12992;50.884;13.668;2022-12-07T09:07:49;97001.88;;;2.39;100.00
24962;BME280;12992;50.884;13.668;2022-12-07T09:10:17;97000.41;;;2.37;100.00
24962;BME280;12992;50.884;13.668;2022-12-07T09:12:43;96977.13;;;2.24;100.00
24962;BME280;12992;50.884;13.668;2022-12-07T09:15:08;96961.66;;;2.13;100.00
24962;BME280;12992;50.884;13.668;2022-12-07T09:17:35;96971.53;;;2.19;100.00
24962;BME280;12992;50.884;13.668;2022-12-07T09:20:01;96981.44;;;2.32;100.00
24962;BME280;12992;50.884;13.668;2022-12-07T09:22:30;96980.16;;;2.41;100.00
24962;BME280;12992;50.884;13.668;2022-12-07T09:24:59;96971.50;;;2.39;100.00
24962;BME280;12992;50.884;13.668;2022-12-07T09:27:26;96959.50;;;2.35;100.00
24962;BME280;12992;50.884;13.668;2022-12-07T09:29:51;96962.59;;;2.38;100.00
24962;BME280;12992;50.884;13.668;2022-12-07T09:32:17;96959.72;;;2.33;100.00
24962;BME280;12992;50.884;13.668;2022-12-07T09:34:42;96955.38;;;2.32;100.00
24962;BME280;12992;50.884;13.668;2022-12-07T09:37:07;96947.53;;;2.31;100.00
24962;BME280;12992;50.884;13.668;2022-12-07T09:39:33;96943.00;;;2.24;100.00
24962;BME280;12992;50.884;13.668;2022-12-07T09:42:03;96933.53;;;2.15;100.00
24962;BME280;12992;50.884;13.668;2022-12-07T09:44:29;96939.94;;;2.21;100.00
24962;BME280;12992;50.884;13.668;2022-12-07T09:46:54;96940.72;;;2.28;100.00
24962;BME280;12992;50.884;13.668;2022-12-07T09:49:23;96944.63;;;2.32;100.00
24962;BME280;12992;50.884;13.668;2022-12-07T09:52:01;96936.41;;;2.20;100.00
24962;BME280;12992;50.884;13.668;2022-12-07T09:54:29;96930.63;;;2.23;100.00
24962;BME280;12992;50.884;13.668;2022-12-07T09:56:54;96940.94;;;2.26;100.00
24962;BME280;12992;50.884;13.668;2022-12-07T09:59:20;96952.88;;;2.37;100.00
24962;BME280;12992;50.884;13.668;2022-12-07T10:01:48;96978.81;;;2.63;100.00
24962;BME280;12992;50.884;13.668;2022-12-07T10:04:20;96972.97;;;2.73;100.00
24962;BME280;12992;50.884;13.668;2022-12-07T10:06:48;96965.94;;;2.78;100.00
24962;BME280;12992;50.884;13.668;2022-12-07T10:09:16;96954.41;;;2.65;100.00
24962;BME280;12992;50.884;13.668;2022-12-07T10:12:07;96956.06;;;2.66;100.00
24962;BME280;12992;50.884;13.668;2022-12-07T10:14:35;96948.00;;;2.66;100.00
24962;BME280;12992;50.884;13.668;2022-12-07T10:17:01;96948.41;;;2.69;100.00
24962;BME280;12992;50.884;13.668;2022-12-07T10:19:28;96932.28;;;2.63;100.00
24962;BME280;12992;50.884;13.668;2022-12-07T10:22:11;96933.94;;;2.64;100.00
24962;BME280;12992;50.884;13.668;2022-12-07T10:24:40;96941.13;;;2.76;100.00
24962;BME280;12992;50.884;13.668;2022-12-07T10:27:29;96951.84;;;2.83;100.00
24962;BME280;12992;50.884;13.668;2022-12-07T10:29:57;96947.47;;;2.82;100.00
24962;BME280;12992;50.884;13.668;2022-12-07T10:32:35;96968.22;;;3.06;100.00
24962;BME280;12992;50.884;13.668;2022-12-07T10:37:46;96994.59;;;3.79;100.00
24962;BME280;12992;50.884;13.668;2022-12-07T10:40:36;96975.47;;;3.87;100.00
24962;BME280;12992;50.884;13.668;2022-12-07T10:43:16;96959.03;;;3.70;100.00
24962;BME280;12992;50.884;13.668;2022-12-07T10:48:19;96935.97;;;3.56;100.00
24962;BME280;12992;50.884;13.668;2022-12-07T10:50:56;96926.53;;;3.47;100.00
24962;BME280;12992;50.884;13.668;2022-12-07T10:56:25;96922.53;;;3.31;100.00
24962;BME280;12992;50.884;13.668;2022-12-07T10:59:16;96916.38;;;3.24;100.00
24962;BME280;12992;50.884;13.668;2022-12-07T11:07:06;96900.50;;;3.16;100.00
24962;BME280;12992;50.884;13.668;2022-12-07T11:12:16;96916.00;;;3.21;100.00
24962;BME280;12992;50.884;13.668;2022-12-07T11:17:24;96914.22;;;3.33;100.00
24962;BME280;12992;50.884;13.668;2022-12-07T11:20:05;96910.94;;;3.31;100.00
24962;BME280;12992;50.884;13.668;2022-12-07T11:22:51;96888.84;;;3.22;100.00
24962;BME280;12992;50.884;13.668;2022-12-07T11:25:49;96892.59;;;3.21;100.00
24962;BME280;12992;50.884;13.668;2022-12-07T11:28:41;96887.59;;;3.25;100.00
24962;BME280;12992;50.884;13.668;2022-12-07T11:31:19;96895.66;;;3.25;100.00
24962;BME280;12992;50.884;13.668;2022-12-07T11:36:36;96875.63;;;3.21;100.00
24962;BME280;12992;50.884;13.668;2022-12-07T11:39:11;96879.03;;;3.09;100.00
24962;BME280;12992;50.884;13.668;2022-12-07T11:41:41;96873.72;;;3.03;100.00
24962;BME280;12992;50.884;13.668;2022-12-07T11:44:08;96879.31;;;3.01;100.00
24962;BME280;12992;50.884;13.668;2022-12-07T11:50:05;96862.81;;;2.91;100.00
24962;BME280;12992;50.884;13.668;2022-12-07T11:58:07;96866.22;;;2.80;100.00
24962;BME280;12992;50.884;13.668;2022-12-07T12:00:38;96869.94;;;2.79;100.00
24962;BME280;12992;50.884;13.668;2022-12-07T12:03:12;96873.22;;;2.81;100.00
24962;BME280;12992;50.884;13.668;2022-12-07T12:05:40;96874.00;;;2.88;100.00
24962;BME280;12992;50.884;13.668;2022-12-07T12:08:16;96881.81;;;2.96;100.00
24962;BME280;12992;50.884;13.668;2022-12-07T12:10:55;96893.69;;;3.13;100.00
24962;BME280;12992;50.884;13.668;2022-12-07T12:13:47;96895.75;;;3.18;100.00
24962;BME280;12992;50.884;13.668;2022-12-07T12:22:06;96853.72;;;2.92;100.00
24962;BME280;12992;50.884;13.668;2022-12-07T12:24:37;96856.13;;;3.00;100.00
24962;BME280;12992;50.884;13.668;2022-12-07T12:27:08;96855.66;;;3.10;100.00
24962;BME280;12992;50.884;13.668;2022-12-07T12:29:40;96872.66;;;3.29;100.00
24962;BME280;12992;50.884;13.668;2022-12-07T12:32:35;96874.09;;;3.31;100.00
24962;BME280;12992;50.884;13.668;2022-12-07T12:37:54;96847.94;;;3.13;100.00
24962;BME280;12992;50.884;13.668;2022-12-07T12:42:56;96827.16;;;2.77;100.00
24962;BME280;12992;50.884;13.668;2022-12-07T12:45:30;96817.09;;;2.66;100.00
24962;BME280;12992;50.884;13.668;2022-12-07T12:48:03;96830.69;;;2.71;100.00
24962;BME280;12992;50.884;13.668;2022-12-07T12:50:36;96830.13;;;2.63;100.00
24962;BME280;12992;50.884;13.668;2022-12-07T13:00:43;96826.41;;;2.32;100.00
24962;BME280;12992;50.884;13.668;2022-12-07T13:03:22;96832.63;;;2.33;100.00
24962;BME280;12992;50.884;13.668;2022-12-07T13:06:32;96828.66;;;2.35;100.00
24962;BME280;12992;50.884;13.668;2022-12-07T13:09:00;96844.97;;;2.40;100.00
24962;BME280;12992;50.884;13.668;2022-12-07T13:11:41;96850.09;;;2.48;100.00
24962;BME280;12992;50.884;13.668;2022-12-07T13:16:53;96851.75;;;2.49;100.00
24962;BME280;12992;50.884;13.668;2022-12-07T13:19:53;96843.25;;;2.52;100.00
24962;BME280;12992;50.884;13.668;2022-12-07T13:24:57;96850.44;;;2.59;100.00
24962;BME280;12992;50.884;13.668;2022-12-07T13:27:25;96842.78;;;2.55;100.00
24962;BME280;12992;50.884;13.668;2022-12-07T13:29:52;96845.31;;;2.50;100.00
24962;BME280;12992;50.884;13.668;2022-12-07T13:32:28;96840.41;;;2.47;100.00
24962;BME280;12992;50.884;13.668;2022-12-07T13:34:55;96842.03;;;2.48;100.00
24962;BME280;12992;50.884;13.668;2022-12-07T13:37:26;96844.72;;;2.48;100.00
24962;BME280;12992;50.884;13.668;2022-12-07T13:39:59;96842.66;;;2.44;100.00
24962;BME280;12992;50.884;13.668;2022-12-07T13:42:27;96830.75;;;2.33;100.00
24962;BME280;12992;50.884;13.668;2022-12-07T13:44:54;96827.88;;;2.28;100.00
24962;BME280;12992;50.884;13.668;2022-12-07T13:47:41;96822.75;;;2.20;100.00
24962;BME280;12992;50.884;13.668;2022-12-07T13:50:29;96814.81;;;2.00;100.00
24962;BME280;12992;50.884;13.668;2022-12-07T13:52:55;96811.38;;;1.86;100.00
24962;BME280;12992;50.884;13.668;2022-12-07T13:55:21;96823.31;;;1.90;100.00
24962;BME280;12992;50.884;13.668;2022-12-07T13:57:50;96838.16;;;1.99;100.00
24962;BME280;12992;50.884;13.668;2022-12-07T14:00:18;96851.13;;;2.09;100.00
24962;BME280;12992;50.884;13.668;2022-12-07T14:05:41;96860.78;;;2.23;100.00
24962;BME280;12992;50.884;13.668;2022-12-07T14:13:51;96861.59;;;2.24;100.00
24962;BME280;12992;50.884;13.668;2022-12-07T14:16:30;96866.13;;;2.30;100.00
24962;BME280;12992;50.884;13.668;2022-12-07T14:18:58;96862.81;;;2.28;100.00
24962;BME280;12992;50.884;13.668;2022-12-07T14:21:26;96852.50;;;2.25;100.00
24962;BME280;12992;50.884;13.668;2022-12-07T14:24:09;96855.19;;;2.25;100.00
24962;BME280;12992;50.884;13.668;2022-12-07T14:26:35;96855.78;;;2.27;100.00
24962;BME280;12992;50.884;13.668;2022-12-07T14:29:30;96857.03;;;2.31;100.00
24962;BME280;12992;50.884;13.668;2022-12-07T14:31:58;96852.47;;;2.32;100.00
24962;BME280;12992;50.884;13.668;2022-12-07T14:34:26;96862.34;;;2.38;100.00